Time;durP1;ratioP1;P1;durP2;ratioP2;P2;SDS_P1;SDS_P2;PMS_P1;PMS_P2;Temp;Humidity;BMP_temperature;BMP_pressure;BME280_temperature;BME280_humidity;BME280_pressure;Samples;Min_cycle;Max_cycle;Signal;HPM_P1;HPM_P2
2022/10/10 00:00:44;;;;;;;2.67;0.80;;;;;;;;;;2082526;28;20028;-74
2022/10/10 00:02:03;;;;;;;3.05;0.68;;;;;;;;;;2087471;28;20493;-73
2022/10/10 00:03:21;;;;;;;7.00;1.02;;;;;;;;;;2086862;28;20060;-74
2022/10/10 00:04:40;;;;;;;8.55;0.98;;;;;;;;;;2086576;28;20029;-74
2022/10/10 00:05:59;;;;;;;4.03;1.15;;;;;;;;;;2087255;28;20029;-73
2022/10/10 00:07:19;;;;;;;4.82;1.15;;;;;;;;;;2084510;28;20037;-74
2022/10/10 00:08:38;;;;;;;4.82;1.15;;;;;;;;;;2079163;28;20054;-73
2022/10/10 00:09:57;;;;;;;3.88;0.95;;;;;;;;;;2075331;28;20029;-73
2022/10/10 00:11:18;;;;;;;2.35;0.90;;;;;;;;;;2083467;28;20486;-73
2022/10/10 00:12:37;;;;;;;3.80;0.73;;;;;;;;;;2085351;28;20489;-73
2022/10/10 00:13:56;;;;;;;6.82;1.17;;;;;;;;;;2087427;28;20494;-74
2022/10/10 00:15:15;;;;;;;5.15;1.10;;;;;;;;;;2087782;28;20556;-75
2022/10/10 00:16:34;;;;;;;3.67;0.95;;;;;;;;;;2090789;28;20037;-72
2022/10/10 00:17:53;;;;;;;7.32;1.17;;;;;;;;;;2086985;28;20456;-73
2022/10/10 00:19:12;;;;;;;2.97;0.90;;;;;;;;;;2089465;28;20041;-74
2022/10/10 00:20:32;;;;;;;4.85;1.15;;;;;;;;;;2079229;28;20057;-74
2022/10/10 00:21:51;;;;;;;4.65;1.00;;;;;;;;;;2087336;28;20029;-74
2022/10/10 00:23:09;;;;;;;6.13;0.80;;;;;;;;;;2089375;28;20394;-74
2022/10/10 00:24:28;;;;;;;8.25;0.85;;;;;;;;;;2079053;28;20382;-73
2022/10/10 00:25:47;;;;;;;3.88;0.90;;;;;;;;;;2085042;28;20037;-73
2022/10/10 00:27:07;;;;;;;4.07;1.33;;;;;;;;;;2089420;28;20025;-73
2022/10/10 00:28:26;;;;;;;6.28;0.93;;;;;;;;;;2080425;28;20045;-74
2022/10/10 00:29:44;;;;;;;6.22;1.00;;;;;;;;;;2085734;28;20032;-74
2022/10/10 00:31:04;;;;;;;4.35;1.10;;;;;;;;;;2088216;28;20040;-73
2022/10/10 00:32:23;;;;;;;7.30;1.60;;;;;;;;;;2079144;28;20026;-74
2022/10/10 00:33:42;;;;;;;1.95;0.70;;;;;;;;;;2086446;28;20041;-73
2022/10/10 00:35:01;;;;;;;7.78;1.27;;;;;;;;;;2085625;28;20025;-73
2022/10/10 00:36:20;;;;;;;4.60;1.10;;;;;;;;;;2085792;28;20040;-74
2022/10/10 00:37:39;;;;;;;3.28;0.82;;;;;;;;;;2087836;28;20111;-74
2022/10/10 00:38:58;;;;;;;5.75;1.25;;;;;;;;;;2087603;28;20104;-73
2022/10/10 00:40:18;;;;;;;6.03;1.23;;;;;;;;;;2089387;28;20029;-74
2022/10/10 00:41:37;;;;;;;5.95;0.95;;;;;;;;;;2089435;28;20482;-72
2022/10/10 00:42:56;;;;;;;5.63;1.10;;;;;;;;;;2088389;28;20056;-74
2022/10/10 00:44:15;;;;;;;7.43;1.63;;;;;;;;;;2078606;28;20418;-73
2022/10/10 00:45:34;;;;;;;4.07;1.13;;;;;;;;;;2070810;28;20046;-74
2022/10/10 00:46:53;;;;;;;3.80;0.82;;;;;;;;;;2073457;28;20030;-73
2022/10/10 00:48:12;;;;;;;2.30;0.80;;;;;;;;;;2070297;28;20030;-74
2022/10/10 00:49:31;;;;;;;4.13;1.00;;;;;;;;;;2072880;28;20391;-74
2022/10/10 00:50:50;;;;;;;5.05;0.90;;;;;;;;;;2069743;28;20491;-73
2022/10/10 00:52:09;;;;;;;3.17;1.10;;;;;;;;;;2071652;28;20030;-74
2022/10/10 00:53:49;;;;;;;6.65;0.98;;;;;;;;;;2072108;28;20570;-74
2022/10/10 00:55:09;;;;;;;3.95;1.27;;;;;;;;;;2071765;28;20034;-73
2022/10/10 00:56:34;;;;;;;4.18;1.08;;;;;;;;;;2073023;28;20418;-73
2022/10/10 00:57:53;;;;;;;5.43;1.65;;;;;;;;;;2068353;28;20558;-74
2022/10/10 00:59:12;;;;;;;3.08;1.50;;;;;;;;;;2071532;28;20029;-74
2022/10/10 01:00:31;;;;;;;3.92;1.05;;;;;;;;;;2080855;28;20033;-73
2022/10/10 01:01:50;;;;;;;3.35;1.30;;;;;;;;;;2070904;28;20026;-73
2022/10/10 01:03:09;;;;;;;3.33;1.30;;;;;;;;;;2072321;28;20034;-73
2022/10/10 01:04:36;;;;;;;4.93;1.17;;;;;;;;;;2072749;28;20394;-74
2022/10/10 01:05:55;;;;;;;8.63;1.00;;;;;;;;;;2072549;28;20591;-74
2022/10/10 01:07:19;;;;;;;5.68;1.10;;;;;;;;;;2071988;28;20514;-73
2022/10/10 01:08:39;;;;;;;2.47;0.90;;;;;;;;;;2070632;28;20038;-74
2022/10/10 01:10:00;;;;;;;2.47;0.90;;;;;;;;;;2070597;28;20037;-74
2022/10/10 01:11:28;;;;;;;1.98;0.80;;;;;;;;;;2071926;28;20422;-73
2022/10/10 01:13:09;;;;;;;3.75;1.10;;;;;;;;;;2079657;28;20105;-75
2022/10/10 01:14:37;;;;;;;4.07;1.23;;;;;;;;;;2071785;28;20030;-75
2022/10/10 01:15:56;;;;;;;5.40;1.02;;;;;;;;;;2071780;28;20030;-73
2022/10/10 01:17:22;;;;;;;6.28;1.15;;;;;;;;;;2071870;28;20034;-74
2022/10/10 01:18:44;;;;;;;5.03;0.88;;;;;;;;;;2071066;28;20431;-73
2022/10/10 01:20:04;;;;;;;3.10;1.40;;;;;;;;;;2067089;28;20026;-74
2022/10/10 01:21:38;;;;;;;4.75;1.10;;;;;;;;;;2069844;28;20440;-76
2022/10/10 01:23:20;;;;;;;4.30;0.82;;;;;;;;;;2070386;28;20045;-74
2022/10/10 01:24:39;;;;;;;7.68;1.50;;;;;;;;;;2043717;28;20047;-73
2022/10/10 01:26:17;;;;;;;3.78;1.10;;;;;;;;;;2071320;28;20041;-73
2022/10/10 01:27:46;;;;;;;2.65;1.05;;;;;;;;;;2069616;28;20026;-72
2022/10/10 01:29:05;;;;;;;3.05;1.02;;;;;;;;;;2068749;28;20030;-73
2022/10/10 01:30:24;;;;;;;5.30;1.55;;;;;;;;;;2070375;28;20041;-74
2022/10/10 01:31:45;;;;;;;8.38;1.00;;;;;;;;;;2071690;28;20113;-73
2022/10/10 01:33:07;;;;;;;3.53;0.90;;;;;;;;;;2068764;28;20181;-74
2022/10/10 01:34:26;;;;;;;8.27;1.83;;;;;;;;;;2071679;28;20029;-73
2022/10/10 01:35:54;;;;;;;2.55;0.98;;;;;;;;;;2071441;28;20034;-73
2022/10/10 01:37:18;;;;;;;5.60;1.13;;;;;;;;;;2078724;28;20030;-75
2022/10/10 01:39:00;;;;;;;5.43;1.30;;;;;;;;;;2074074;28;20033;-73
2022/10/10 01:40:22;;;;;;;4.90;0.90;;;;;;;;;;2071042;28;20034;-73
2022/10/10 01:41:49;;;;;;;5.93;1.15;;;;;;;;;;2070022;28;20049;-76
2022/10/10 01:43:08;;;;;;;6.90;1.65;;;;;;;;;;2068837;28;20022;-73
2022/10/10 01:44:27;;;;;;;4.75;1.30;;;;;;;;;;2070228;28;20030;-73
2022/10/10 01:45:47;;;;;;;3.22;0.73;;;;;;;;;;2070540;28;20490;-73
2022/10/10 01:47:08;;;;;;;5.95;1.27;;;;;;;;;;2077627;28;20100;-74
2022/10/10 01:48:28;;;;;;;3.50;1.30;;;;;;;;;;2073801;28;20035;-75
2022/10/10 01:49:52;;;;;;;2.63;1.08;;;;;;;;;;2069633;28;20035;-74
2022/10/10 01:51:14;;;;;;;7.10;1.33;;;;;;;;;;2067838;28;20065;-75
2022/10/10 01:52:33;;;;;;;7.80;1.23;;;;;;;;;;2069762;28;20568;-74
2022/10/10 01:54:11;;;;;;;5.50;1.40;;;;;;;;;;2070227;28;20026;-74
2022/10/10 01:55:42;;;;;;;5.63;1.13;;;;;;;;;;2069672;28;20026;-75
2022/10/10 01:57:13;;;;;;;5.45;1.13;;;;;;;;;;2070052;28;20513;-74
2022/10/10 01:59:08;;;;;;;5.97;1.00;;;;;;;;;;2071746;28;20062;-75
2022/10/10 02:00:27;;;;;;;6.10;1.17;;;;;;;;;;2043328;29;20032;-75
2022/10/10 02:01:49;;;;;;;3.45;0.90;;;;;;;;;;2046072;29;20028;-74
2022/10/10 02:03:12;;;;;;;7.07;1.55;;;;;;;;;;2068026;28;20532;-73
2022/10/10 02:04:31;;;;;;;8.30;1.23;;;;;;;;;;2071567;28;20025;-73
2022/10/10 02:06:14;;;;;;;6.10;0.88;;;;;;;;;;2071664;28;20109;-75
2022/10/10 02:08:08;;;;;;;5.07;0.93;;;;;;;;;;2068554;28;20034;-74
2022/10/10 02:09:27;;;;;;;;;;;;;;;;;;2060059;28;20038;-75
2022/10/10 02:10:58;;;;;;;3.88;1.10;;;;;;;;;;2056195;28;19906;-74
2022/10/10 02:12:18;;;;;;;4.60;1.00;;;;;;;;;;2069829;28;20499;-74
2022/10/10 02:13:42;;;;;;;5.70;1.15;;;;;;;;;;2079959;28;20112;-74
2022/10/10 02:15:12;;;;;;;4.40;1.05;;;;;;;;;;2072950;28;20045;-74
2022/10/10 02:16:37;;;;;;;5.88;0.93;;;;;;;;;;2072873;28;20440;-73
2022/10/10 02:17:56;;;;;;;4.78;1.10;;;;;;;;;;2070425;28;20026;-74
2022/10/10 02:19:17;;;;;;;4.53;0.90;;;;;;;;;;2070635;28;20121;-74
2022/10/10 02:20:36;;;;;;;7.22;1.10;;;;;;;;;;2072671;28;20053;-74
2022/10/10 02:21:55;;;;;;;2.50;0.80;;;;;;;;;;2070311;28;20085;-75
2022/10/10 02:23:15;;;;;;;4.55;1.27;;;;;;;;;;2070259;28;20436;-74
2022/10/10 02:24:34;;;;;;;2.92;0.90;;;;;;;;;;2071910;28;20081;-75
2022/10/10 02:25:54;;;;;;;5.03;1.13;;;;;;;;;;2071900;28;20487;-77
2022/10/10 02:27:17;;;;;;;6.72;1.02;;;;;;;;;;2066001;28;20026;-75
2022/10/10 02:28:42;;;;;;;3.22;0.90;;;;;;;;;;2070433;28;20034;-74
2022/10/10 02:30:02;;;;;;;4.95;1.10;;;;;;;;;;2071570;28;20041;-74
2022/10/10 02:31:38;;;;;;;4.90;1.23;;;;;;;;;;2070486;28;20053;-73
2022/10/10 02:33:01;;;;;;;8.90;1.30;;;;;;;;;;2072195;28;20034;-74
2022/10/10 02:34:23;;;;;;;5.35;1.00;;;;;;;;;;2071672;28;20026;-74
2022/10/10 02:35:44;;;;;;;6.97;0.90;;;;;;;;;;2071687;28;20042;-74
2022/10/10 02:37:09;;;;;;;1.88;0.85;;;;;;;;;;2072157;28;20033;-74
2022/10/10 02:38:29;;;;;;;7.55;1.25;;;;;;;;;;2071323;28;20117;-74
2022/10/10 02:39:52;;;;;;;6.03;1.17;;;;;;;;;;2071973;28;20407;-74
2022/10/10 02:41:13;;;;;;;5.20;0.77;;;;;;;;;;2071012;28;20518;-75
2022/10/10 02:42:33;;;;;;;4.60;0.93;;;;;;;;;;2070643;28;20030;-75
2022/10/10 02:43:52;;;;;;;4.05;0.93;;;;;;;;;;2071974;28;20042;-74
2022/10/10 02:45:11;;;;;;;3.65;1.02;;;;;;;;;;2078150;28;20557;-74
2022/10/10 02:46:30;;;;;;;3.28;0.90;;;;;;;;;;2078494;28;20430;-73
2022/10/10 02:47:49;;;;;;;3.63;0.93;;;;;;;;;;2083467;28;20433;-74
2022/10/10 02:49:09;;;;;;;6.82;0.80;;;;;;;;;;2078377;28;20041;-74
2022/10/10 02:50:29;;;;;;;6.03;1.10;;;;;;;;;;2076136;28;20037;-77
2022/10/10 02:51:48;;;;;;;6.65;1.15;;;;;;;;;;2077105;28;20037;-74
2022/10/10 02:53:07;;;;;;;9.85;1.10;;;;;;;;;;2084848;28;20068;-74
2022/10/10 02:54:26;;;;;;;3.10;1.05;;;;;;;;;;2087717;28;20064;-74
2022/10/10 02:55:45;;;;;;;3.13;1.00;;;;;;;;;;2088046;28;20045;-73
2022/10/10 02:57:04;;;;;;;4.20;0.70;;;;;;;;;;2086157;28;20410;-74
2022/10/10 02:58:23;;;;;;;6.00;1.30;;;;;;;;;;2087978;28;20449;-75
2022/10/10 02:59:42;;;;;;;6.07;1.15;;;;;;;;;;2087995;28;20060;-74
2022/10/10 03:01:01;;;;;;;7.35;1.20;;;;;;;;;;2086972;28;20033;-74
2022/10/10 03:02:20;;;;;;;4.00;1.10;;;;;;;;;;2088153;28;20032;-74
2022/10/10 03:03:39;;;;;;;5.50;1.00;;;;;;;;;;2085573;28;20025;-74
2022/10/10 03:04:57;;;;;;;5.75;1.23;;;;;;;;;;2078643;28;20029;-73
2022/10/10 03:06:16;;;;;;;4.72;1.30;;;;;;;;;;2073291;28;20029;-73
2022/10/10 03:07:35;;;;;;;5.90;0.90;;;;;;;;;;2084787;28;20478;-75
2022/10/10 03:08:54;;;;;;;6.47;1.20;;;;;;;;;;2086722;28;21817;-74
2022/10/10 03:10:12;;;;;;;5.18;1.10;;;;;;;;;;2086046;28;20020;-73
2022/10/10 03:11:31;;;;;;;5.95;1.23;;;;;;;;;;2085392;28;20040;-75
2022/10/10 03:12:50;;;;;;;6.25;1.05;;;;;;;;;;2078457;28;20046;-74
2022/10/10 03:14:09;;;;;;;3.53;0.85;;;;;;;;;;2084939;28;20037;-74
2022/10/10 03:15:28;;;;;;;5.03;1.08;;;;;;;;;;2087516;28;20432;-73
2022/10/10 03:16:47;;;;;;;5.53;1.23;;;;;;;;;;2086774;28;20024;-73
2022/10/10 03:18:05;;;;;;;8.80;1.20;;;;;;;;;;2087843;28;20025;-74
2022/10/10 03:19:25;;;;;;;7.90;1.60;;;;;;;;;;2088024;28;20044;-78
2022/10/10 03:20:44;;;;;;;4.50;1.00;;;;;;;;;;2085591;28;20029;-74
2022/10/10 03:22:03;;;;;;;6.18;1.15;;;;;;;;;;2078362;28;20426;-74
2022/10/10 03:23:23;;;;;;;5.50;1.10;;;;;;;;;;2083271;28;20032;-74
2022/10/10 03:24:42;;;;;;;6.07;1.00;;;;;;;;;;2078953;28;20037;-74
2022/10/10 03:26:02;;;;;;;6.50;1.27;;;;;;;;;;2084718;28;20036;-73
2022/10/10 03:27:20;;;;;;;5.32;1.10;;;;;;;;;;2087545;28;20382;-74
2022/10/10 03:28:39;;;;;;;9.20;1.30;;;;;;;;;;2087284;28;20445;-75
2022/10/10 03:29:58;;;;;;;7.05;1.50;;;;;;;;;;2086630;28;20040;-73
2022/10/10 03:31:17;;;;;;;4.72;1.20;;;;;;;;;;2079902;28;20033;-74
2022/10/10 03:32:36;;;;;;;5.03;1.52;;;;;;;;;;2084429;28;20025;-75
2022/10/10 03:33:55;;;;;;;3.55;1.00;;;;;;;;;;2087621;28;20397;-74
2022/10/10 03:35:14;;;;;;;7.70;1.50;;;;;;;;;;2078050;28;20494;-75
2022/10/10 03:36:33;;;;;;;5.25;1.48;;;;;;;;;;2075599;28;20049;-73
2022/10/10 03:37:53;;;;;;;7.28;1.90;;;;;;;;;;2082936;28;20033;-74
2022/10/10 03:39:12;;;;;;;7.32;1.42;;;;;;;;;;2084497;28;20041;-74
2022/10/10 03:40:31;;;;;;;15.02;1.58;;;;;;;;;;2087222;28;20100;-77
2022/10/10 03:41:50;;;;;;;8.23;1.33;;;;;;;;;;2079195;28;20101;-74
2022/10/10 03:43:09;;;;;;;7.05;1.27;;;;;;;;;;2084758;28;20032;-75
2022/10/10 03:44:28;;;;;;;3.08;1.27;;;;;;;;;;2080023;28;20402;-74
2022/10/10 03:45:48;;;;;;;7.43;1.58;;;;;;;;;;2082054;28;20044;-74
2022/10/10 03:47:07;;;;;;;4.30;0.90;;;;;;;;;;2088812;28;20029;-75
2022/10/10 03:48:26;;;;;;;7.25;1.50;;;;;;;;;;2079777;28;20103;-75
2022/10/10 03:49:44;;;;;;;7.60;1.40;;;;;;;;;;2083916;28;20449;-74
2022/10/10 03:51:04;;;;;;;6.53;1.80;;;;;;;;;;2079248;28;20030;-74
2022/10/10 03:52:23;;;;;;;8.77;2.05;;;;;;;;;;2083496;28;20025;-74
2022/10/10 03:53:42;;;;;;;9.13;1.40;;;;;;;;;;2086712;28;20493;-75
2022/10/10 03:55:01;;;;;;;3.75;1.20;;;;;;;;;;2080364;28;20057;-73
2022/10/10 03:56:20;;;;;;;2.53;1.50;;;;;;;;;;2080187;28;20034;-74
2022/10/10 03:57:39;;;;;;;7.85;1.40;;;;;;;;;;2075132;28;21154;-74
2022/10/10 03:58:59;;;;;;;9.85;1.70;;;;;;;;;;2083682;28;20073;-77
2022/10/10 04:00:18;;;;;;;8.55;1.50;;;;;;;;;;2086394;28;20033;-74
2022/10/10 04:01:37;;;;;;;7.35;1.10;;;;;;;;;;2088341;28;20029;-73
2022/10/10 04:02:56;;;;;;;5.25;1.08;;;;;;;;;;2088136;28;20025;-74
2022/10/10 04:04:15;;;;;;;6.45;1.67;;;;;;;;;;2078326;28;20406;-74
2022/10/10 04:05:35;;;;;;;2.50;1.02;;;;;;;;;;2083639;28;20032;-74
2022/10/10 04:06:54;;;;;;;6.55;1.45;;;;;;;;;;2088372;28;20108;-74
2022/10/10 04:08:13;;;;;;;5.65;1.33;;;;;;;;;;2086952;28;20112;-74
2022/10/10 04:09:32;;;;;;;7.05;1.77;;;;;;;;;;2085376;28;20060;-76
2022/10/10 04:10:52;;;;;;;8.32;1.38;;;;;;;;;;2078745;28;20033;-74
2022/10/10 04:12:10;;;;;;;9.25;1.75;;;;;;;;;;2083967;28;20033;-75
2022/10/10 04:13:29;;;;;;;4.15;1.02;;;;;;;;;;2087756;28;20025;-74
2022/10/10 04:14:48;;;;;;;9.55;1.67;;;;;;;;;;2087273;28;20029;-73
2022/10/10 04:16:07;;;;;;;4.22;0.88;;;;;;;;;;2086913;28;20026;-75
2022/10/10 04:17:26;;;;;;;10.13;1.60;;;;;;;;;;2087717;28;20490;-75
2022/10/10 04:18:45;;;;;;;10.82;1.60;;;;;;;;;;2079095;28;20671;-75
2022/10/10 04:20:04;;;;;;;8.70;1.50;;;;;;;;;;2083745;28;20066;-76
2022/10/10 04:21:23;;;;;;;5.25;1.10;;;;;;;;;;2077528;28;20034;-75
2022/10/10 04:22:42;;;;;;;7.95;1.65;;;;;;;;;;2081494;28;20029;-76
2022/10/10 04:24:01;;;;;;;3.55;1.40;;;;;;;;;;2075791;28;20034;-76
2022/10/10 04:25:20;;;;;;;6.85;1.20;;;;;;;;;;2082269;28;20025;-74
2022/10/10 04:26:39;;;;;;;4.95;1.55;;;;;;;;;;2084600;28;20432;-74
2022/10/10 04:27:58;;;;;;;6.45;1.27;;;;;;;;;;2084352;28;20037;-79
2022/10/10 04:29:17;;;;;;;5.82;1.38;;;;;;;;;;2088041;28;20032;-75
2022/10/10 04:30:36;;;;;;;7.25;1.13;;;;;;;;;;2081309;28;20050;-75
2022/10/10 04:31:55;;;;;;;9.77;1.95;;;;;;;;;;2084348;28;20065;-75
2022/10/10 04:33:13;;;;;;;9.13;1.55;;;;;;;;;;2079079;28;20041;-75
2022/10/10 04:34:35;;;;;;;7.95;1.80;;;;;;;;;;2078913;28;20116;-74
2022/10/10 04:35:54;;;;;;;6.60;1.52;;;;;;;;;;2082968;28;20119;-75
2022/10/10 04:37:13;;;;;;;7.10;1.30;;;;;;;;;;2079462;28;20025;-76
2022/10/10 04:38:32;;;;;;;8.30;1.40;;;;;;;;;;2082707;28;20398;-74
2022/10/10 04:39:51;;;;;;;7.25;1.80;;;;;;;;;;2087455;28;20389;-77
2022/10/10 04:41:10;;;;;;;5.47;1.40;;;;;;;;;;2087516;28;20029;-74
2022/10/10 04:42:29;;;;;;;7.60;1.33;;;;;;;;;;2087013;28;20088;-74
2022/10/10 04:43:48;;;;;;;6.55;1.30;;;;;;;;;;2086429;28;20017;-76
2022/10/10 04:45:07;;;;;;;7.57;1.23;;;;;;;;;;2085540;28;20045;-76
2022/10/10 04:46:26;;;;;;;12.93;1.63;;;;;;;;;;2085022;28;20032;-74
2022/10/10 04:47:45;;;;;;;5.45;1.27;;;;;;;;;;2087832;28;20414;-74
2022/10/10 04:49:04;;;;;;;6.75;1.55;;;;;;;;;;2088877;28;20045;-75
2022/10/10 04:50:23;;;;;;;6.75;1.80;;;;;;;;;;2088056;28;20037;-75
2022/10/10 04:51:42;;;;;;;3.53;1.60;;;;;;;;;;2086191;28;20041;-74
2022/10/10 04:53:01;;;;;;;7.85;1.73;;;;;;;;;;2086809;28;20040;-74
2022/10/10 04:54:20;;;;;;;5.55;1.55;;;;;;;;;;2085316;28;20385;-75
2022/10/10 04:55:39;;;;;;;3.17;1.30;;;;;;;;;;2085955;28;20041;-74
2022/10/10 04:56:58;;;;;;;3.60;1.27;;;;;;;;;;2077029;28;20049;-75
2022/10/10 04:58:17;;;;;;;4.70;1.23;;;;;;;;;;2074362;28;20056;-76
2022/10/10 04:59:36;;;;;;;8.57;1.90;;;;;;;;;;2075200;28;20029;-74
2022/10/10 05:00:55;;;;;;;4.00;1.45;;;;;;;;;;2072606;28;20025;-77
2022/10/10 05:02:14;;;;;;;3.10;1.20;;;;;;;;;;2081235;28;20037;-76
2022/10/10 05:03:33;;;;;;;5.45;1.17;;;;;;;;;;2079102;28;20402;-77
2022/10/10 05:04:52;;;;;;;3.08;1.20;;;;;;;;;;2084182;28;20381;-79
2022/10/10 05:06:11;;;;;;;5.68;1.25;;;;;;;;;;2078611;28;20108;-76
2022/10/10 05:07:30;;;;;;;5.45;1.38;;;;;;;;;;2073814;28;20139;-74
2022/10/10 05:08:49;;;;;;;5.35;1.65;;;;;;;;;;2084606;28;20132;-77
2022/10/10 05:10:08;;;;;;;4.85;1.30;;;;;;;;;;2081365;28;20029;-74
2022/10/10 05:11:27;;;;;;;6.57;1.55;;;;;;;;;;2074774;28;20534;-75
2022/10/10 05:12:46;;;;;;;4.78;1.52;;;;;;;;;;2082477;28;20084;-74
2022/10/10 05:14:05;;;;;;;5.82;1.20;;;;;;;;;;2080296;28;20455;-73
2022/10/10 05:15:25;;;;;;;5.72;1.27;;;;;;;;;;2074972;28;20333;-73
2022/10/10 05:16:44;;;;;;;5.15;1.40;;;;;;;;;;2084178;28;20029;-77
2022/10/10 05:18:03;;;;;;;8.05;1.70;;;;;;;;;;2088980;28;20052;-75
2022/10/10 05:19:22;;;;;;;8.13;1.40;;;;;;;;;;2085687;28;20045;-74
2022/10/10 05:20:42;;;;;;;10.00;1.83;;;;;;;;;;2088142;28;20032;-74
2022/10/10 05:22:01;;;;;;;5.47;1.40;;;;;;;;;;2089672;28;20021;-75
2022/10/10 05:23:20;;;;;;;9.82;1.80;;;;;;;;;;2085244;28;20482;-76
2022/10/10 05:24:39;;;;;;;6.70;1.50;;;;;;;;;;2086475;28;20041;-75
2022/10/10 05:25:58;;;;;;;3.33;1.35;;;;;;;;;;2079185;28;20029;-76
2022/10/10 05:27:17;;;;;;;6.40;1.50;;;;;;;;;;2083656;28;20057;-77
2022/10/10 05:28:37;;;;;;;7.13;1.42;;;;;;;;;;2085366;28;20029;-78
2022/10/10 05:29:56;;;;;;;9.02;1.90;;;;;;;;;;2087530;28;20107;-77
2022/10/10 05:31:15;;;;;;;7.15;1.38;;;;;;;;;;2087238;28;20482;-76
2022/10/10 05:32:34;;;;;;;4.63;1.73;;;;;;;;;;2085244;28;20068;-75
2022/10/10 05:33:53;;;;;;;8.35;2.00;;;;;;;;;;2088856;28;20033;-75
2022/10/10 05:35:12;;;;;;;8.25;1.70;;;;;;;;;;2089416;28;20029;-74
2022/10/10 05:36:31;;;;;;;8.48;2.45;;;;;;;;;;2087928;28;20040;-75
2022/10/10 05:37:50;;;;;;;9.38;1.77;;;;;;;;;;2087646;28;20037;-75
2022/10/10 05:39:09;;;;;;;9.55;1.55;;;;;;;;;;2088216;28;20044;-74
2022/10/10 05:40:28;;;;;;;7.40;1.77;;;;;;;;;;2085298;28;20033;-74
2022/10/10 05:41:46;;;;;;;14.38;2.10;;;;;;;;;;2079267;28;20845;-79
2022/10/10 05:43:05;;;;;;;6.40;1.30;;;;;;;;;;2085170;28;20025;-77
2022/10/10 05:44:24;;;;;;;10.48;1.95;;;;;;;;;;2087599;28;20029;-74
2022/10/10 05:45:43;;;;;;;6.00;1.40;;;;;;;;;;2076690;28;20100;-77
2022/10/10 05:47:03;;;;;;;6.20;1.63;;;;;;;;;;2075403;28;20041;-74
2022/10/10 05:48:22;;;;;;;6.65;1.60;;;;;;;;;;2074608;28;20164;-76
2022/10/10 05:49:42;;;;;;;9.80;2.42;;;;;;;;;;2086790;28;20459;-75
2022/10/10 05:51:00;;;;;;;3.80;1.77;;;;;;;;;;2086765;28;20061;-79
2022/10/10 05:52:19;;;;;;;5.35;1.42;;;;;;;;;;2085802;28;20029;-75
2022/10/10 05:53:38;;;;;;;5.53;1.52;;;;;;;;;;2087632;28;20046;-75
2022/10/10 05:54:57;;;;;;;8.63;1.67;;;;;;;;;;2087892;28;20390;-75
2022/10/10 05:56:16;;;;;;;11.65;2.25;;;;;;;;;;2086254;28;21057;-73
2022/10/10 05:57:35;;;;;;;10.57;2.00;;;;;;;;;;2087951;28;20478;-73
2022/10/10 05:58:54;;;;;;;7.82;2.08;;;;;;;;;;2085554;28;20059;-73
2022/10/10 06:00:13;;;;;;;6.38;1.70;;;;;;;;;;2086631;28;20029;-77
2022/10/10 06:01:32;;;;;;;8.90;1.48;;;;;;;;;;2079803;28;20113;-74
2022/10/10 06:02:51;;;;;;;9.85;1.65;;;;;;;;;;2082145;28;20033;-77
2022/10/10 06:04:10;;;;;;;5.28;1.60;;;;;;;;;;2087190;28;20037;-74
2022/10/10 06:05:29;;;;;;;5.78;1.65;;;;;;;;;;2086833;28;20509;-75
2022/10/10 06:06:48;;;;;;;6.97;1.60;;;;;;;;;;2078380;28;20116;-75
2022/10/10 06:08:08;;;;;;;4.47;1.50;;;;;;;;;;2084744;28;20029;-74
2022/10/10 06:09:26;;;;;;;7.70;1.73;;;;;;;;;;2080346;28;20150;-75
2022/10/10 06:10:45;;;;;;;5.03;1.40;;;;;;;;;;2083593;28;20433;-74
2022/10/10 06:12:04;;;;;;;5.68;1.60;;;;;;;;;;2078646;28;20034;-75
2022/10/10 06:13:23;;;;;;;6.25;1.70;;;;;;;;;;2080881;28;20038;-73
2022/10/10 06:14:42;;;;;;;6.15;2.13;;;;;;;;;;2088078;28;20037;-77
2022/10/10 06:16:01;;;;;;;10.18;2.05;;;;;;;;;;2086075;28;20037;-75
2022/10/10 06:17:21;;;;;;;8.00;1.80;;;;;;;;;;2087007;28;20025;-75
2022/10/10 06:18:39;;;;;;;4.93;1.63;;;;;;;;;;2088034;28;20062;-75
2022/10/10 06:19:58;;;;;;;5.13;1.95;;;;;;;;;;2085495;28;20029;-75
2022/10/10 06:21:17;;;;;;;4.90;2.30;;;;;;;;;;2079486;28;20037;-76
2022/10/10 06:22:36;;;;;;;5.20;1.35;;;;;;;;;;2075061;28;20022;-74
2022/10/10 06:23:55;;;;;;;7.53;1.70;;;;;;;;;;2076471;28;20110;-74
2022/10/10 06:25:14;;;;;;;8.93;2.20;;;;;;;;;;2084247;28;20390;-74
2022/10/10 06:26:32;;;;;;;4.30;1.30;;;;;;;;;;2079740;28;20534;-74
2022/10/10 06:27:51;;;;;;;6.40;1.65;;;;;;;;;;2080815;28;20022;-74
2022/10/10 06:29:10;;;;;;;8.13;1.42;;;;;;;;;;2085814;28;20466;-74
2022/10/10 06:30:30;;;;;;;10.85;1.63;;;;;;;;;;2088108;28;20399;-75
2022/10/10 06:31:49;;;;;;;5.57;1.70;;;;;;;;;;2088449;28;20029;-76
2022/10/10 06:33:08;;;;;;;11.45;1.60;;;;;;;;;;2080185;28;20026;-75
2022/10/10 06:34:27;;;;;;;6.10;1.70;;;;;;;;;;2076841;28;20025;-77
2022/10/10 06:35:47;;;;;;;10.32;1.60;;;;;;;;;;2077325;28;20033;-76
2022/10/10 06:37:08;;;;;;;10.70;1.60;;;;;;;;;;2085809;28;20029;-78
2022/10/10 06:38:26;;;;;;;7.40;1.70;;;;;;;;;;2089030;28;20032;-79
2022/10/10 06:42:05;;;;;;;7.50;1.70;;;;;;;;;;2087622;28;20029;-84
2022/10/10 06:43:24;;;;;;;5.28;1.60;;;;;;;;;;2088056;28;20025;-81
2022/10/10 06:44:44;;;;;;;8.40;1.48;;;;;;;;;;2086840;28;20474;-83
2022/10/10 06:46:04;;;;;;;6.22;1.45;;;;;;;;;;2088473;28;20102;-82
2022/10/10 06:47:24;;;;;;;10.55;2.05;;;;;;;;;;2080013;28;20033;-79
2022/10/10 06:48:42;;;;;;;4.60;1.25;;;;;;;;;;2079633;28;20503;-80
2022/10/10 06:50:02;;;;;;;10.80;2.03;;;;;;;;;;2076609;28;20120;-80
2022/10/10 06:51:21;;;;;;;10.63;1.63;;;;;;;;;;2079891;28;20044;-80
2022/10/10 06:52:40;;;;;;;4.47;1.35;;;;;;;;;;2078228;28;20459;-76
2022/10/10 06:53:59;;;;;;;5.53;1.60;;;;;;;;;;2079948;28;20052;-76
2022/10/10 06:55:18;;;;;;;9.18;1.92;;;;;;;;;;2077099;28;20423;-77
2022/10/10 06:56:37;;;;;;;8.38;1.48;;;;;;;;;;2077127;28;20045;-78
2022/10/10 06:57:56;;;;;;;5.85;1.70;;;;;;;;;;2085467;28;20036;-82
2022/10/10 06:59:17;;;;;;;10.15;2.10;;;;;;;;;;2079760;28;20037;-87
2022/10/10 07:00:36;;;;;;;7.78;2.00;;;;;;;;;;2077049;28;20026;-82
2022/10/10 07:01:59;;;;;;;6.00;1.42;;;;;;;;;;2077780;28;20033;-86
2022/10/10 07:03:18;;;;;;;8.95;1.92;;;;;;;;;;2085988;28;20025;-78
2022/10/10 07:04:37;;;;;;;11.65;1.80;;;;;;;;;;2078540;28;20435;-78
2022/10/10 07:05:57;;;;;;;9.05;1.88;;;;;;;;;;2084415;28;20025;-81
2022/10/10 07:07:17;;;;;;;9.73;1.75;;;;;;;;;;2086552;28;20041;-80
2022/10/10 07:08:37;;;;;;;4.43;1.55;;;;;;;;;;2088674;28;20469;-78
2022/10/10 07:09:56;;;;;;;9.80;1.67;;;;;;;;;;2088696;28;20033;-79
2022/10/10 07:11:15;;;;;;;4.80;1.70;;;;;;;;;;2079311;28;20053;-80
2022/10/10 07:12:33;;;;;;;8.13;1.85;;;;;;;;;;2084954;28;20028;-81
2022/10/10 07:13:56;;;;;;;7.22;2.15;;;;;;;;;;2089099;28;20029;-83
2022/10/10 07:15:15;;;;;;;6.63;1.63;;;;;;;;;;2080172;28;20411;-81
2022/10/10 07:16:34;;;;;;;4.93;1.30;;;;;;;;;;2077242;28;21661;-82
2022/10/10 07:17:57;;;;;;;5.70;1.83;;;;;;;;;;2085204;28;20017;-83
2022/10/10 07:19:17;;;;;;;5.13;1.50;;;;;;;;;;2079877;28;20511;-76
2022/10/10 07:20:38;;;;;;;5.35;1.40;;;;;;;;;;2085770;28;20033;-81
2022/10/10 07:21:56;;;;;;;5.30;1.33;;;;;;;;;;2088511;28;20024;-80
2022/10/10 07:23:16;;;;;;;5.65;1.77;;;;;;;;;;2087150;28;20096;-78
2022/10/10 07:24:35;;;;;;;4.32;1.45;;;;;;;;;;2078637;28;20494;-81
2022/10/10 07:26:02;;;;;;;12.65;2.00;;;;;;;;;;2085900;28;20032;-83
2022/10/10 07:27:21;;;;;;;9.02;1.60;;;;;;;;;;2088122;28;20025;-83
2022/10/10 07:28:40;;;;;;;7.15;1.52;;;;;;;;;;2087866;28;20017;-81
2022/10/10 07:29:59;;;;;;;12.60;1.67;;;;;;;;;;2078318;28;20033;-83
2022/10/10 07:31:18;;;;;;;5.15;1.48;;;;;;;;;;2076365;28;20465;-86
2022/10/10 07:32:36;;;;;;;5.80;1.58;;;;;;;;;;2076577;28;20030;-83
2022/10/10 07:33:55;;;;;;;6.20;1.52;;;;;;;;;;2076653;28;20026;-79
2022/10/10 07:35:14;;;;;;;5.55;2.13;;;;;;;;;;2076245;28;20025;-78
2022/10/10 07:36:33;;;;;;;5.07;1.45;;;;;;;;;;2076883;28;20037;-79
2022/10/10 07:37:52;;;;;;;4.97;1.60;;;;;;;;;;2076927;28;20037;-78
2022/10/10 07:39:12;;;;;;;5.35;1.52;;;;;;;;;;2085235;28;20033;-78
2022/10/10 07:40:30;;;;;;;7.35;1.25;;;;;;;;;;2089168;28;20080;-79
2022/10/10 07:41:50;;;;;;;4.38;1.30;;;;;;;;;;2088144;28;20040;-80
2022/10/10 07:43:09;;;;;;;5.65;1.60;;;;;;;;;;2088528;28;20505;-81
2022/10/10 07:44:28;;;;;;;6.90;1.13;;;;;;;;;;2087898;28;20028;-80
2022/10/10 07:45:47;;;;;;;8.23;1.65;;;;;;;;;;2087268;28;20041;-80
2022/10/10 07:47:06;;;;;;;5.68;1.05;;;;;;;;;;2079558;28;20029;-80
2022/10/10 07:48:26;;;;;;;6.10;1.23;;;;;;;;;;2076974;28;20026;-80
2022/10/10 07:49:45;;;;;;;3.13;1.25;;;;;;;;;;2076027;28;20030;-80
2022/10/10 07:51:05;;;;;;;7.93;1.33;;;;;;;;;;2084723;28;20029;-80
2022/10/10 07:52:24;;;;;;;10.73;1.98;;;;;;;;;;2079836;28;20144;-74
2022/10/10 07:53:43;;;;;;;7.30;1.20;;;;;;;;;;2076539;28;20041;-81
2022/10/10 07:55:02;;;;;;;7.57;1.23;;;;;;;;;;2076169;28;20278;-77
2022/10/10 07:56:22;;;;;;;7.13;1.73;;;;;;;;;;2085212;28;20021;-76
2022/10/10 07:57:41;;;;;;;6.68;1.33;;;;;;;;;;2088340;28;20021;-76
2022/10/10 07:59:00;;;;;;;8.77;1.20;;;;;;;;;;2079890;28;20567;-74
2022/10/10 08:00:19;;;;;;;7.30;1.60;;;;;;;;;;2084411;28;20021;-74
2022/10/10 08:01:38;;;;;;;4.75;1.13;;;;;;;;;;2089118;28;20021;-75
2022/10/10 08:02:58;;;;;;;6.22;1.20;;;;;;;;;;2079906;28;20053;-73
2022/10/10 08:04:17;;;;;;;2.45;1.50;;;;;;;;;;2085142;28;20021;-75